createdAt,value
2023-05-07T00:03:02.464Z,100135.50
2023-05-07T00:08:04.527Z,100140.81
2023-05-07T00:13:06.111Z,100134.75
2023-05-07T00:18:07.831Z,100131.78
2023-05-07T00:23:10.302Z,100127.28
2023-05-07T00:28:11.848Z,100137.69
2023-05-07T00:33:13.591Z,100130.41
2023-05-07T00:38:15.501Z,100127.09
2023-05-07T00:43:17.256Z,100121.75
2023-05-07T00:48:19.538Z,100118.28
2023-05-07T00:53:21.714Z,100121.69
2023-05-07T00:58:23.853Z,100113.84
2023-05-07T01:03:25.379Z,100122.78
2023-05-07T01:08:30.483Z,100120.16
2023-05-07T01:13:32.361Z,100118.97
2023-05-07T01:18:33.927Z,100115.00
2023-05-07T01:23:36.959Z,100128.97
2023-05-07T01:28:38.504Z,100125.53
2023-05-07T01:33:43.620Z,100134.22
2023-05-07T01:38:48.165Z,100124.22
2023-05-07T01:43:52.867Z,100118.53
2023-05-07T01:48:54.906Z,100115.78
2023-05-07T01:53:56.596Z,100124.47
2023-05-07T01:58:58.656Z,100127.19
2023-05-07T02:04:00.635Z,100126.84
2023-05-07T02:09:04.482Z,100127.19
2023-05-07T02:14:06.491Z,100128.16
2023-05-07T02:19:08.142Z,100132.78
2023-05-07T02:24:09.853Z,100136.22
2023-05-07T02:29:11.398Z,100139.41
2023-05-07T02:34:14.204Z,100134.41
2023-05-07T02:39:16.516Z,100137.44
2023-05-07T02:44:18.170Z,100133.84
2023-05-07T02:49:23.208Z,100122.53
2023-05-07T02:54:24.949Z,100132.41
2023-05-07T02:59:27.269Z,100113.69
2023-05-07T03:04:29.096Z,100111.41
2023-05-07T03:09:30.859Z,100105.47
2023-05-07T03:14:32.433Z,100105.44
2023-05-07T03:19:34.059Z,100105.28
2023-05-07T03:24:35.863Z,100099.91
2023-05-07T03:29:37.598Z,100107.16
2023-05-07T03:34:39.441Z,100108.94
2023-05-07T03:39:41.968Z,100106.31
2023-05-07T03:44:44.101Z,100109.63
2023-05-07T03:49:45.936Z,100112.66
2023-05-07T03:54:49.243Z,100129.38
2023-05-07T03:59:51.689Z,100125.94
2023-05-07T04:04:53.465Z,100123.25
2023-05-07T04:09:55.946Z,100139.22
2023-05-07T04:14:57.754Z,100142.94
2023-05-07T04:19:59.584Z,100140.81
2023-05-07T04:25:02.209Z,100137.59
2023-05-07T04:30:04.720Z,100143.22
2023-05-07T04:35:11.205Z,100146.09
2023-05-07T04:40:14.239Z,100148.16
2023-05-07T04:45:17.266Z,100145.47
2023-05-07T04:50:21.022Z,100153.25
2023-05-07T04:55:24.183Z,100165.59
2023-05-07T05:00:26.252Z,100167.81
2023-05-07T05:05:29.377Z,100174.41
2023-05-07T05:10:31.038Z,100184.09
2023-05-07T05:15:34.066Z,100179.31
2023-05-07T05:20:36.980Z,100179.66
2023-05-07T05:25:40.329Z,100181.34
2023-05-07T05:30:43.734Z,100178.19
2023-05-07T05:35:45.939Z,100184.06
2023-05-07T05:40:48.641Z,100187.09
2023-05-07T05:45:50.888Z,100190.50
2023-05-07T05:50:52.584Z,100193.91
2023-05-07T05:55:54.628Z,100179.09
2023-05-07T06:00:57.552Z,100175.00
2023-05-07T06:06:01.523Z,100159.41
2023-05-07T06:11:04.028Z,100157.56
2023-05-07T06:16:08.622Z,100165.38
2023-05-07T06:21:11.160Z,100176.34
2023-05-07T06:26:13.348Z,100185.06
2023-05-07T06:31:22.708Z,100178.59
2023-05-07T06:36:36.042Z,100172.69
2023-05-07T06:41:45.826Z,100150.69
2023-05-07T06:46:58.033Z,100156.13
2023-05-07T06:51:59.647Z,100148.91
2023-05-07T06:57:01.686Z,100155.72
2023-05-07T07:02:04.280Z,100170.13
2023-05-07T07:07:05.912Z,100189.38
2023-05-07T07:12:07.666Z,100191.75
2023-05-07T07:17:12.000Z,100203.69
2023-05-07T07:22:13.871Z,100188.13
2023-05-07T07:27:21.142Z,100200.19
2023-05-07T07:32:22.823Z,100210.66
2023-05-07T07:37:26.657Z,100202.91
2023-05-07T07:42:30.192Z,100212.38
2023-05-07T07:47:32.605Z,100212.97
2023-05-07T07:52:34.882Z,100227.94
2023-05-07T07:57:36.678Z,100230.44
2023-05-07T08:02:38.898Z,100220.91
2023-05-07T08:07:40.662Z,100229.91
2023-05-07T08:12:42.748Z,100229.44
2023-05-07T08:17:44.989Z,100226.13
2023-05-07T08:22:46.835Z,100225.63
2023-05-07T08:27:48.542Z,100229.53
2023-05-07T08:32:51.104Z,100230.25
2023-05-07T08:37:52.824Z,100233.78
2023-05-07T08:42:57.452Z,100229.25
2023-05-07T08:48:02.654Z,100228.16
2023-05-07T08:53:08.402Z,100220.53
2023-05-07T08:58:10.306Z,100220.63
2023-05-07T09:03:15.912Z,100219.22
2023-05-07T09:08:26.054Z,100210.91
2023-05-07T09:13:31.460Z,100210.75
2023-05-07T09:18:35.076Z,100207.97
2023-05-07T09:23:37.150Z,100205.28
2023-05-07T09:28:40.945Z,100190.09
2023-05-07T09:33:43.519Z,100189.53
2023-05-07T09:38:47.398Z,100186.47
2023-05-07T09:43:55.571Z,100191.13
2023-05-07T09:49:03.002Z,100186.66
2023-05-07T09:54:08.217Z,100186.84
2023-05-07T09:59:15.592Z,100178.66
2023-05-07T10:04:18.558Z,100174.75
2023-05-07T10:09:22.276Z,100170.13
2023-05-07T10:14:24.919Z,100171.22
2023-05-07T10:19:27.472Z,100168.25
2023-05-07T10:24:35.123Z,100180.28
2023-05-07T10:30:09.814Z,100166.31
2023-05-07T10:35:22.677Z,100151.16
2023-05-07T10:40:25.467Z,100161.41
2023-05-07T10:45:30.041Z,100150.66
2023-05-07T10:50:34.617Z,100145.94
2023-05-07T10:55:38.521Z,100152.00
2023-05-07T11:00:45.727Z,100137.22
2023-05-07T11:06:15.314Z,100128.78
2023-05-07T11:11:57.375Z,100122.19
2023-05-07T11:17:10.459Z,100125.50
2023-05-07T11:22:31.295Z,100110.47
2023-05-07T11:27:42.919Z,100115.34
2023-05-07T11:32:47.853Z,100118.75
2023-05-07T11:37:58.797Z,100128.44
2023-05-07T11:43:11.813Z,100110.13
2023-05-07T11:48:14.659Z,100120.06
2023-05-07T11:53:18.154Z,100113.91
2023-05-07T11:58:25.234Z,100119.47
2023-05-07T12:03:29.574Z,100118.19
2023-05-07T12:08:32.674Z,100109.75
2023-05-07T12:13:34.204Z,100112.19
2023-05-07T12:18:37.577Z,100123.31
2023-05-07T12:23:39.533Z,100119.69
2023-05-07T12:28:41.160Z,100114.63
2023-05-07T12:33:43.301Z,100119.53
2023-05-07T12:38:44.857Z,100114.50
2023-05-07T12:43:47.066Z,100108.94
2023-05-07T12:48:49.495Z,100122.25
2023-05-07T12:53:51.068Z,100127.28
2023-05-07T12:58:52.590Z,100133.75
2023-05-07T13:03:54.273Z,100139.16
2023-05-07T13:08:55.908Z,100140.81
2023-05-07T13:13:57.422Z,100141.13
2023-05-07T13:18:59.291Z,100141.69
2023-05-07T13:24:00.892Z,100145.81
2023-05-07T13:29:02.502Z,100139.84
2023-05-07T13:34:04.047Z,100147.47
2023-05-07T13:39:05.619Z,100148.06
2023-05-07T13:44:07.159Z,100146.78
2023-05-07T13:49:08.804Z,100145.16
2023-05-07T13:54:10.477Z,100151.19
2023-05-07T13:59:13.519Z,100149.59
2023-05-07T14:04:15.167Z,100147.72
2023-05-07T14:09:16.870Z,100144.44
2023-05-07T14:14:19.248Z,100156.09
2023-05-07T14:19:20.873Z,100158.63
2023-05-07T14:24:34.856Z,100158.59
2023-05-07T14:29:39.522Z,100155.97
2023-05-07T14:34:41.114Z,100154.41
2023-05-07T14:39:42.671Z,100143.56
2023-05-07T14:44:45.776Z,100141.38
2023-05-07T14:49:47.357Z,100144.28
2023-05-07T14:54:48.880Z,100153.84
2023-05-07T14:59:50.505Z,100154.75
2023-05-07T15:04:52.059Z,100156.28
2023-05-07T15:09:53.733Z,100162.22
2023-05-07T15:14:55.339Z,100174.41
2023-05-07T15:19:56.944Z,100189.22
2023-05-07T15:24:59.786Z,100197.25
2023-05-07T15:30:01.930Z,100203.78
2023-05-07T15:35:04.762Z,100210.44
2023-05-07T15:40:08.048Z,100206.25
2023-05-07T15:45:10.824Z,100203.81
2023-05-07T15:50:12.622Z,100209.25
2023-05-07T15:55:15.017Z,100214.03
2023-05-07T16:00:17.966Z,100216.25
2023-05-07T16:05:19.550Z,100222.56
2023-05-07T16:10:21.140Z,100226.88
2023-05-07T16:15:22.790Z,100228.00
2023-05-07T16:20:29.983Z,100228.41
2023-05-07T16:25:32.096Z,100240.72
2023-05-07T16:30:33.916Z,100251.06
2023-05-07T16:35:35.703Z,100255.09
2023-05-07T16:40:40.473Z,100256.44
2023-05-07T16:45:42.176Z,100273.78
2023-05-07T16:50:44.546Z,100277.50
2023-05-07T16:55:46.097Z,100281.31
2023-05-07T17:00:51.036Z,100296.03
2023-05-07T17:05:53.252Z,100292.44
2023-05-07T17:10:54.840Z,100297.19
2023-05-07T17:15:56.459Z,100308.75
2023-05-07T17:20:58.144Z,100311.44
2023-05-07T17:25:59.736Z,100323.19
2023-05-07T17:31:01.338Z,100332.38
2023-05-07T17:36:03.304Z,100344.34
2023-05-07T17:41:07.294Z,100354.00
2023-05-07T17:46:09.855Z,100363.66
2023-05-07T17:51:11.555Z,100372.69
2023-05-07T17:56:13.135Z,100379.53
2023-05-07T18:01:14.764Z,100390.28
2023-05-07T18:06:19.117Z,100391.28
2023-05-07T18:11:21.865Z,100387.63
2023-05-07T18:16:23.685Z,100392.50
2023-05-07T18:21:25.405Z,100399.03
2023-05-07T18:26:27.007Z,100405.03
2023-05-07T18:31:28.688Z,100409.63
2023-05-07T18:36:30.653Z,100413.72
2023-05-07T18:41:32.320Z,100414.19
2023-05-07T18:46:34.048Z,100418.06
2023-05-07T18:51:35.784Z,100416.28
2023-05-07T18:56:37.341Z,100423.16
2023-05-07T19:01:39.012Z,100427.38
2023-05-07T19:06:40.695Z,100423.41
2023-05-07T19:11:42.470Z,100433.38
2023-05-07T19:16:44.134Z,100431.59
2023-05-07T19:21:45.817Z,100438.25
2023-05-07T19:26:47.348Z,100451.66
2023-05-07T19:31:48.951Z,100466.81
2023-05-07T19:36:51.284Z,100466.63
2023-05-07T19:41:52.817Z,100484.91
2023-05-07T19:46:54.425Z,100491.78
2023-05-07T19:51:57.181Z,100496.53
2023-05-07T19:56:58.841Z,100495.91
2023-05-07T20:02:00.563Z,100502.59
2023-05-07T20:07:02.152Z,100505.63
2023-05-07T20:12:03.942Z,100511.09
2023-05-07T20:17:05.496Z,100516.03
2023-05-07T20:22:07.060Z,100511.03
2023-05-07T20:27:09.192Z,100512.63
2023-05-07T20:32:10.829Z,100520.59
2023-05-07T20:37:15.816Z,100521.25
2023-05-07T20:42:17.518Z,100523.59
2023-05-07T20:47:19.145Z,100522.50
2023-05-07T20:52:21.156Z,100525.84
2023-05-07T20:57:23.078Z,100533.22
2023-05-07T21:02:24.735Z,100530.66
2023-05-07T21:07:26.357Z,100533.59
2023-05-07T21:12:28.070Z,100536.75
2023-05-07T21:17:31.749Z,100548.03
2023-05-07T21:22:33.657Z,100542.72
2023-05-07T21:27:35.193Z,100555.41
2023-05-07T21:32:36.775Z,100561.16
2023-05-07T21:37:38.653Z,100567.25
2023-05-07T21:42:40.208Z,100563.94
2023-05-07T21:47:41.830Z,100569.53
2023-05-07T21:52:43.425Z,100569.53
2023-05-07T21:57:50.885Z,100570.03
2023-05-07T22:03:03.527Z,100584.22
2023-05-07T22:08:05.423Z,100571.25
2023-05-07T22:13:06.979Z,100571.25
2023-05-07T22:18:08.613Z,100572.59
2023-05-07T22:23:10.377Z,100573.28
2023-05-07T22:28:11.965Z,100568.78
2023-05-07T22:33:13.487Z,100564.25
2023-05-07T22:38:15.043Z,100576.03
2023-05-07T22:43:16.591Z,100582.88
2023-05-07T22:48:18.143Z,100585.13
2023-05-07T22:53:20.181Z,100577.97
2023-05-07T22:58:21.779Z,100574.63
2023-05-07T23:03:23.679Z,100570.69
2023-05-07T23:08:25.521Z,100566.75
2023-05-07T23:13:27.616Z,100569.91
2023-05-07T23:18:30.346Z,100579.09
2023-05-07T23:23:34.348Z,100576.22
2023-05-07T23:28:35.986Z,100575.75
2023-05-07T23:33:38.878Z,100586.00
2023-05-07T23:38:40.452Z,100579.63
2023-05-07T23:43:42.044Z,100582.88
2023-05-07T23:48:43.567Z,100579.72
2023-05-07T23:53:45.808Z,100590.91
2023-05-07T23:58:47.380Z,100589.91
